Time;durP1;ratioP1;P1;durP2;ratioP2;P2;SDS_P1;SDS_P2;PMS_P1;PMS_P2;Temp;Humidity;BMP_temperature;BMP_pressure;BME280_temperature;BME280_humidity;BME280_pressure;Samples;Min_cycle;Max_cycle;Signal;HPM_P1;HPM_P2
2022/03/07 00:01:16;;;;;;;28.00;17.80;;;8.20;61.80;;;;;;5043124;28;20420;-67
2022/03/07 00:03:42;;;;;;;29.55;18.80;;;8.00;61.90;;;;;;5044760;28;20064;-66
2022/03/07 00:06:08;;;;;;;28.83;19.00;;;7.80;62.80;;;;;;5042110;28;20037;-66
2022/03/07 00:08:34;;;;;;;28.10;18.60;;;7.80;62.70;;;;;;5041028;28;20090;-66
2022/03/07 00:11:00;;;;;;;29.92;18.77;;;7.70;63.30;;;;;;5042578;28;20036;-66
2022/03/07 00:13:26;;;;;;;28.10;18.98;;;7.50;64.00;;;;;;5043049;28;20139;-67
2022/03/07 00:15:52;;;;;;;26.52;18.50;;;7.60;64.40;;;;;;5043712;28;20337;-67
2022/03/07 00:18:18;;;;;;;28.85;18.90;;;7.60;64.40;;;;;;5058147;28;20032;-67
2022/03/07 00:20:43;;;;;;;29.80;19.00;;;7.60;64.70;;;;;;5041980;28;20029;-67
2022/03/07 00:23:11;;;;;;;28.70;19.73;;;7.50;64.20;;;;;;5042220;28;20500;-66
2022/03/07 00:25:38;;;;;;;29.33;19.48;;;7.40;64.90;;;;;;5043469;28;20033;-69
2022/03/07 00:28:05;;;;;;;30.05;19.63;;;7.40;65.20;;;;;;5043526;28;20029;-68
2022/03/07 00:30:31;;;;;;;31.13;19.60;;;7.30;65.50;;;;;;5058691;28;20576;-68
2022/03/07 00:32:56;;;;;;;30.13;19.67;;;7.00;66.40;;;;;;5041754;28;20657;-68
2022/03/07 00:35:22;;;;;;;29.17;20.10;;;7.10;67.30;;;;;;5041889;28;20108;-69
2022/03/07 00:37:48;;;;;;;31.13;20.10;;;7.20;66.10;;;;;;5042038;28;20071;-69
2022/03/07 00:40:14;;;;;;;32.88;21.17;;;7.00;66.50;;;;;;5041953;28;20068;-69
2022/03/07 00:42:43;;;;;;;30.58;19.50;;;7.00;67.80;;;;;;5043358;28;20071;-69
2022/03/07 00:45:12;;;;;;;29.38;18.10;;;6.90;68.20;;;;;;5042078;28;20062;-69
2022/03/07 00:47:38;;;;;;;32.90;20.42;;;6.80;68.60;;;;;;5036122;28;20116;-69
2022/03/07 00:50:05;;;;;;;29.67;19.95;;;6.90;68.00;;;;;;5042205;28;20140;-69
2022/03/07 00:52:31;;;;;;;31.90;20.33;;;7.00;65.80;;;;;;5044207;28;20040;-69
2022/03/07 00:54:57;;;;;;;33.90;20.45;;;7.20;65.30;;;;;;5049883;28;20392;-69
2022/03/07 00:57:22;;;;;;;29.60;19.65;;;7.20;64.40;;;;;;5049320;28;20021;-69
2022/03/07 00:59:48;;;;;;;30.85;19.75;;;7.30;64.00;;;;;;5049131;28;20432;-70
2022/03/07 01:02:14;;;;;;;30.80;19.55;;;7.30;63.10;;;;;;5048421;28;20032;-69
2022/03/07 01:04:42;;;;;;;29.73;19.92;;;7.40;62.40;;;;;;5049436;28;20064;-69
2022/03/07 01:07:09;;;;;;;30.35;18.85;;;7.30;62.70;;;;;;5050077;28;20083;-69
2022/03/07 01:09:35;;;;;;;29.10;19.75;;;7.40;62.50;;;;;;5043136;28;20033;-69
2022/03/07 01:12:01;;;;;;;32.38;19.20;;;7.30;62.60;;;;;;5050484;28;20400;-69
2022/03/07 01:14:27;;;;;;;29.58;18.85;;;7.40;62.60;;;;;;5050034;28;20037;-69
2022/03/07 01:16:53;;;;;;;26.85;17.90;;;7.40;62.90;;;;;;5050272;28;20056;-69
2022/03/07 01:19:19;;;;;;;28.80;17.73;;;7.30;62.80;;;;;;5050311;28;20025;-69
2022/03/07 01:21:45;;;;;;;30.15;17.92;;;7.20;62.70;;;;;;5053824;28;20056;-69
2022/03/07 01:24:11;;;;;;;28.17;17.95;;;7.30;62.50;;;;;;5053498;28;20064;-69
2022/03/07 01:26:37;;;;;;;26.40;18.55;;;7.30;62.40;;;;;;5053907;28;20033;-67
2022/03/07 01:29:05;;;;;;;30.80;18.00;;;7.40;62.60;;;;;;5053735;28;20067;-66
2022/03/07 01:31:31;;;;;;;31.77;19.42;;;7.30;62.50;;;;;;5053821;28;20029;-66
2022/03/07 01:33:57;;;;;;;31.08;19.55;;;7.10;63.20;;;;;;5053795;28;20117;-67
2022/03/07 01:36:23;;;;;;;29.77;18.98;;;7.10;63.70;;;;;;5053624;28;20028;-67
2022/03/07 01:38:49;;;;;;;30.35;19.25;;;7.00;64.50;;;;;;5056211;28;20028;-67
2022/03/07 01:41:15;;;;;;;31.73;19.80;;;7.10;64.70;;;;;;5054735;28;20108;-66
2022/03/07 01:43:41;;;;;;;31.33;18.95;;;7.00;65.60;;;;;;5054921;28;20040;-67
2022/03/07 01:46:08;;;;;;;27.27;18.83;;;6.90;66.30;;;;;;5054482;28;20041;-66
2022/03/07 01:48:38;;;;;;;30.67;18.65;;;6.60;66.70;;;;;;5053563;28;20029;-67
2022/03/07 01:51:04;;;;;;;30.10;18.42;;;6.70;66.50;;;;;;5053181;28;20124;-66
2022/03/07 01:53:30;;;;;;;29.25;18.75;;;6.70;66.50;;;;;;5054897;28;20024;-66
2022/03/07 01:55:56;;;;;;;34.25;19.05;;;6.70;66.20;;;;;;5053053;28;20079;-67
2022/03/07 01:58:22;;;;;;;30.55;19.90;;;6.70;66.40;;;;;;5054752;28;20162;-67
2022/03/07 02:00:48;;;;;;;33.35;20.23;;;6.70;67.50;;;;;;5053628;28;20029;-67
2022/03/07 02:03:14;;;;;;;30.27;20.13;;;6.40;68.30;;;;;;5053923;28;20029;-67
2022/03/07 02:05:46;;;;;;;34.38;20.55;;;6.30;68.80;;;;;;5048981;28;20056;-67
2022/03/07 02:08:12;;;;;;;34.78;20.42;;;6.30;68.90;;;;;;5054138;28;20029;-68
2022/03/07 02:10:39;;;;;;;34.08;21.88;;;6.10;68.90;;;;;;5055711;28;20401;-67
2022/03/07 02:13:17;;;;;;;33.55;20.17;;;6.10;69.40;;;;;;5045311;28;20033;-67
2022/03/07 02:15:43;;;;;;;34.78;22.17;;;6.10;68.90;;;;;;5046463;28;20049;-67
2022/03/07 02:18:08;;;;;;;31.83;19.27;;;6.20;68.20;;;;;;5047720;28;20032;-67
2022/03/07 02:20:35;;;;;;;29.70;19.90;;;6.30;67.90;;;;;;5045949;28;20036;-66
2022/03/07 02:23:01;;;;;;;29.88;20.05;;;6.40;67.90;;;;;;5049349;28;20023;-66
2022/03/07 02:25:27;;;;;;;33.10;20.63;;;6.30;68.20;;;;;;5047935;28;20081;-68
2022/03/07 02:27:53;;;;;;;34.00;20.23;;;6.20;68.40;;;;;;5045247;28;20025;-68
2022/03/07 02:30:18;;;;;;;32.55;19.80;;;6.00;69.80;;;;;;5049570;28;20033;-68
2022/03/07 02:32:44;;;;;;;29.27;20.25;;;6.00;70.10;;;;;;5045595;28;20037;-69
2022/03/07 02:35:12;;;;;;;33.05;19.98;;;6.10;69.90;;;;;;5048142;28;20036;-69
2022/03/07 02:37:38;;;;;;;33.25;20.05;;;6.20;68.60;;;;;;5049255;28;20032;-69
2022/03/07 02:40:04;;;;;;;31.23;20.45;;;6.20;66.70;;;;;;5045739;28;20444;-69
2022/03/07 02:42:30;;;;;;;31.40;20.90;;;6.20;65.90;;;;;;5046018;28;20033;-68
2022/03/07 02:44:56;;;;;;;35.30;22.35;;;6.40;65.40;;;;;;5046011;28;20044;-68
2022/03/07 02:47:23;;;;;;;35.55;22.08;;;6.60;63.90;;;;;;5049658;28;20495;-69
2022/03/07 02:49:50;;;;;;;34.38;21.75;;;6.60;63.40;;;;;;5053118;28;20021;-69
2022/03/07 02:52:16;;;;;;;30.63;19.83;;;6.60;63.20;;;;;;5048969;28;20029;-69
2022/03/07 02:54:41;;;;;;;33.10;22.02;;;6.60;63.20;;;;;;5048133;28;20406;-69
2022/03/07 02:57:08;;;;;;;33.80;21.75;;;6.50;63.20;;;;;;5030646;28;20033;-69
2022/03/07 02:59:34;;;;;;;30.65;20.67;;;6.60;63.40;;;;;;5048850;28;20406;-69
2022/03/07 03:02:00;;;;;;;32.35;20.50;;;6.80;63.20;;;;;;5052342;28;20520;-69
2022/03/07 03:04:26;;;;;;;33.33;20.77;;;6.90;62.90;;;;;;5049440;28;20021;-69
2022/03/07 03:06:51;;;;;;;31.27;21.13;;;6.80;62.50;;;;;;5047318;28;20504;-69
2022/03/07 03:09:17;;;;;;;30.15;19.83;;;6.60;62.90;;;;;;5053223;28;20075;-68
2022/03/07 03:11:43;;;;;;;32.45;21.52;;;6.70;63.10;;;;;;5048267;28;20079;-68
2022/03/07 03:14:08;;;;;;;33.47;21.58;;;6.70;62.80;;;;;;5050522;28;20106;-69
2022/03/07 03:16:34;;;;;;;30.45;21.42;;;6.70;63.10;;;;;;5048945;28;20056;-69
2022/03/07 03:19:00;;;;;;;31.98;22.17;;;6.60;62.90;;;;;;5047257;28;20036;-69
2022/03/07 03:21:26;;;;;;;34.03;23.92;;;6.90;62.80;;;;;;5047672;28;20033;-68
2022/03/07 03:23:51;;;;;;;36.70;27.80;;;6.70;63.40;;;;;;5047489;28;20051;-69
2022/03/07 03:26:17;;;;;;;36.85;27.75;;;6.60;63.30;;;;;;5047113;28;20037;-69
2022/03/07 03:28:43;;;;;;;32.08;22.30;;;6.40;64.20;;;;;;5049920;28;20037;-69
2022/03/07 03:31:11;;;;;;;32.38;23.10;;;6.20;67.10;;;;;;5045124;28;20044;-69
2022/03/07 03:33:38;;;;;;;31.80;22.95;;;6.30;68.10;;;;;;5045690;28;20412;-69
2022/03/07 03:36:05;;;;;;;37.15;26.33;;;6.30;68.60;;;;;;5048382;28;20049;-69
2022/03/07 03:38:31;;;;;;;38.08;28.58;;;6.30;68.10;;;;;;5048821;28;20028;-69
2022/03/07 03:40:56;;;;;;;31.08;20.92;;;6.20;67.40;;;;;;5044369;28;20086;-69
2022/03/07 03:43:22;;;;;;;31.80;20.13;;;5.90;68.20;;;;;;5043451;28;20465;-69
2022/03/07 03:45:48;;;;;;;29.50;20.67;;;5.60;69.60;;;;;;5050807;28;20041;-69
2022/03/07 03:48:14;;;;;;;29.83;19.15;;;5.20;69.30;;;;;;5045589;28;20041;-69
2022/03/07 03:50:40;;;;;;;29.30;19.55;;;5.20;70.90;;;;;;5046477;28;20454;-69
2022/03/07 03:53:06;;;;;;;30.02;19.77;;;5.10;71.60;;;;;;5050766;28;20075;-69
2022/03/07 03:55:32;;;;;;;31.10;20.02;;;5.00;72.60;;;;;;5048046;28;20029;-68
2022/03/07 03:57:58;;;;;;;28.95;19.25;;;4.90;72.60;;;;;;5045147;28;20083;-68
2022/03/07 04:00:28;;;;;;;32.13;19.88;;;5.00;73.10;;;;;;5044453;28;20021;-69
2022/03/07 04:02:54;;;;;;;31.23;19.38;;;5.00;73.70;;;;;;5044810;28;20032;-69
2022/03/07 04:05:20;;;;;;;31.80;19.75;;;5.00;73.90;;;;;;5048633;28;20040;-69
2022/03/07 04:07:45;;;;;;;28.90;19.77;;;4.90;74.00;;;;;;5051011;28;20029;-68
2022/03/07 04:10:13;;;;;;;30.88;19.77;;;5.00;74.50;;;;;;5051752;28;20032;-68
2022/03/07 04:12:41;;;;;;;30.05;20.00;;;4.90;75.60;;;;;;5039706;28;20061;-68
2022/03/07 04:15:07;;;;;;;27.25;18.50;;;4.90;75.20;;;;;;5047681;28;20359;-68
2022/03/07 04:17:36;;;;;;;31.08;19.88;;;4.80;76.20;;;;;;5046746;28;20497;-68
2022/03/07 04:20:02;;;;;;;28.45;18.83;;;4.70;76.60;;;;;;5050876;28;20111;-69
2022/03/07 04:22:27;;;;;;;30.17;19.80;;;4.80;75.20;;;;;;5047145;28;20167;-69
2022/03/07 04:24:53;;;;;;;33.55;20.75;;;4.80;75.30;;;;;;5050372;28;20073;-69
2022/03/07 04:27:19;;;;;;;33.55;20.25;;;4.80;76.10;;;;;;5046189;28;20032;-69
2022/03/07 04:29:45;;;;;;;30.02;20.33;;;4.70;76.30;;;;;;5044172;28;20026;-69
2022/03/07 04:32:10;;;;;;;30.60;20.40;;;4.80;76.30;;;;;;5048570;28;20367;-69
2022/03/07 04:34:36;;;;;;;30.05;19.45;;;4.80;75.80;;;;;;5047040;28;20033;-69
2022/03/07 04:37:02;;;;;;;32.20;20.52;;;4.90;74.50;;;;;;5050422;28;20021;-69
2022/03/07 04:39:28;;;;;;;30.30;19.30;;;4.70;73.00;;;;;;5044537;28;20044;-69
2022/03/07 04:41:54;;;;;;;28.55;19.35;;;4.90;75.60;;;;;;5043615;28;20059;-69
2022/03/07 04:44:19;;;;;;;27.50;19.30;;;5.00;76.30;;;;;;5047292;28;20025;-68
2022/03/07 04:46:45;;;;;;;29.38;20.35;;;4.80;77.10;;;;;;5049107;28;20044;-69
2022/03/07 04:49:11;;;;;;;29.67;19.35;;;4.60;78.00;;;;;;5044697;28;20036;-68
2022/03/07 04:51:39;;;;;;;31.00;19.95;;;4.70;76.90;;;;;;5044165;28;20029;-69
2022/03/07 04:54:05;;;;;;;28.42;19.48;;;4.80;78.00;;;;;;5045913;28;20068;-69
2022/03/07 04:56:31;;;;;;;29.65;18.67;;;4.70;76.00;;;;;;5049317;28;20500;-69
2022/03/07 04:58:57;;;;;;;28.58;18.73;;;4.60;75.40;;;;;;5052721;28;20017;-69
2022/03/07 05:01:23;;;;;;;25.98;19.10;;;4.60;76.30;;;;;;5048432;28;20085;-68
2022/03/07 05:03:48;;;;;;;30.38;20.23;;;4.50;79.10;;;;;;5047591;28;20025;-69
2022/03/07 05:06:14;;;;;;;31.88;20.15;;;4.60;77.80;;;;;;5048117;28;20135;-68
2022/03/07 05:08:42;;;;;;;31.40;20.63;;;4.70;78.20;;;;;;5054749;28;20029;-69
2022/03/07 05:11:08;;;;;;;26.90;19.77;;;4.60;78.00;;;;;;5052907;28;20025;-69
2022/03/07 05:13:34;;;;;;;31.50;19.92;;;4.40;78.60;;;;;;5049629;28;20052;-69
2022/03/07 05:16:00;;;;;;;32.15;21.25;;;4.50;78.70;;;;;;5046157;28;20084;-69
2022/03/07 05:18:26;;;;;;;29.80;21.77;;;4.60;78.70;;;;;;5048546;28;20079;-69
2022/03/07 05:20:51;;;;;;;34.72;21.08;;;4.70;78.10;;;;;;5051820;28;20053;-68
2022/03/07 05:23:17;;;;;;;37.05;20.90;;;4.60;78.90;;;;;;5047338;28;20029;-69
2022/03/07 05:25:43;;;;;;;32.75;20.73;;;4.60;78.10;;;;;;5048025;28;20043;-68
2022/03/07 05:28:08;;;;;;;34.00;21.73;;;4.40;78.20;;;;;;5046709;28;20859;-68
2022/03/07 05:30:34;;;;;;;32.92;20.50;;;4.50;79.80;;;;;;5048190;28;20084;-68
2022/03/07 05:33:00;;;;;;;28.67;19.55;;;4.50;78.70;;;;;;5052680;28;20091;-69
2022/03/07 05:35:26;;;;;;;33.72;21.35;;;4.50;76.90;;;;;;5048067;28;20025;-68
2022/03/07 05:37:52;;;;;;;29.15;20.35;;;4.40;78.10;;;;;;5045631;28;20021;-68
2022/03/07 05:40:18;;;;;;;32.85;22.33;;;4.30;78.50;;;;;;5047188;28;20554;-69
2022/03/07 05:42:44;;;;;;;30.45;19.95;;;4.30;77.90;;;;;;5047262;28;20021;-69
2022/03/07 05:45:12;;;;;;;28.27;19.15;;;4.30;79.30;;;;;;5052780;28;20041;-68
2022/03/07 05:47:38;;;;;;;32.22;19.98;;;4.40;81.50;;;;;;5051201;28;20029;-68
2022/03/07 05:50:04;;;;;;;30.65;20.05;;;4.20;80.10;;;;;;5047760;28;20036;-68
2022/03/07 05:52:30;;;;;;;34.50;21.10;;;4.30;81.10;;;;;;5048101;28;20016;-69
2022/03/07 05:54:56;;;;;;;33.40;20.75;;;4.30;82.30;;;;;;5044001;28;20071;-70
2022/03/07 05:57:22;;;;;;;35.75;21.90;;;4.20;83.60;;;;;;5046920;28;20055;-68
2022/03/07 05:59:48;;;;;;;34.50;21.90;;;4.30;82.40;;;;;;5046775;28;20049;-68
2022/03/07 06:02:13;;;;;;;34.33;20.67;;;4.20;82.80;;;;;;5051314;28;20087;-67
2022/03/07 06:04:41;;;;;;;40.67;22.48;;;4.20;82.30;;;;;;5050142;28;20027;-67
2022/03/07 06:07:07;;;;;;;34.05;22.67;;;4.00;82.40;;;;;;5044500;28;20079;-67
2022/03/07 06:09:33;;;;;;;45.13;22.38;;;4.10;84.40;;;;;;5049907;28;20045;-68
2022/03/07 06:11:59;;;;;;;38.20;22.05;;;4.20;83.60;;;;;;5044859;28;20059;-67
2022/03/07 06:14:24;;;;;;;33.15;22.08;;;4.10;80.20;;;;;;5051119;28;20456;-68
2022/03/07 06:16:50;;;;;;;32.88;23.02;;;3.80;81.10;;;;;;5051204;28;20029;-68
2022/03/07 06:19:16;;;;;;;32.88;23.13;;;3.80;81.60;;;;;;5043830;28;20037;-67
2022/03/07 06:21:42;;;;;;;35.08;23.98;;;3.80;83.00;;;;;;5043478;28;20563;-67
2022/03/07 06:24:08;;;;;;;34.03;23.38;;;3.90;82.80;;;;;;5045435;28;20482;-68
2022/03/07 06:26:35;;;;;;;37.83;26.25;;;3.90;83.80;;;;;;5051105;28;20037;-67
2022/03/07 06:29:02;;;;;;;40.30;24.88;;;3.90;82.90;;;;;;5058908;28;20094;-68
2022/03/07 06:31:27;;;;;;;39.25;24.77;;;3.90;84.20;;;;;;5053789;28;20029;-70
2022/03/07 06:33:53;;;;;;;60.83;27.02;;;4.00;84.70;;;;;;5045781;28;20028;-68
2022/03/07 06:36:19;;;;;;;55.50;26.05;;;4.00;85.90;;;;;;5046572;28;20028;-68
2022/03/07 06:38:45;;;;;;;37.95;25.02;;;4.00;85.60;;;;;;5048822;28;20057;-68
2022/03/07 06:41:10;;;;;;;43.08;25.05;;;3.90;82.90;;;;;;5050844;28;20037;-68
2022/03/07 06:43:37;;;;;;;35.58;23.92;;;3.80;82.50;;;;;;5048612;28;20025;-68
2022/03/07 06:46:03;;;;;;;42.42;23.85;;;3.80;82.10;;;;;;5044374;28;20045;-72
2022/03/07 06:48:29;;;;;;;38.58;23.73;;;3.80;81.90;;;;;;5046342;28;20024;-68
2022/03/07 06:50:55;;;;;;;40.17;26.75;;;3.80;82.30;;;;;;5046678;28;20056;-73
2022/03/07 06:53:20;;;;;;;106.50;86.45;;;4.20;82.50;;;;;;5051594;28;20459;-72
2022/03/07 06:55:46;;;;;;;158.05;130.50;;;4.40;81.20;;;;;;5055789;28;20025;-70
2022/03/07 06:58:12;;;;;;;152.05;125.43;;;4.60;78.00;;;;;;5053395;28;20439;-69
2022/03/07 07:00:38;;;;;;;148.82;121.75;;;4.70;77.40;;;;;;5045858;28;20476;-69
2022/03/07 07:03:05;;;;;;;142.82;121.70;;;4.70;76.30;;;;;;5046457;28;20450;-68
2022/03/07 07:05:32;;;;;;;140.15;118.03;;;4.80;75.00;;;;;;5050845;28;20029;-68
2022/03/07 07:07:58;;;;;;;146.05;120.32;;;4.90;75.30;;;;;;5049235;28;20025;-68
2022/03/07 07:10:25;;;;;;;158.45;127.38;;;4.90;75.40;;;;;;5051676;28;20033;-68
2022/03/07 07:12:51;;;;;;;146.20;121.13;;;5.10;74.70;;;;;;5045422;28;20034;-67
2022/03/07 07:15:17;;;;;;;141.95;112.45;;;5.10;73.30;;;;;;5051467;28;20029;-67
2022/03/07 07:17:43;;;;;;;141.00;111.40;;;5.20;73.40;;;;;;5049829;28;20120;-68
2022/03/07 07:20:10;;;;;;;143.80;112.07;;;5.40;73.20;;;;;;5047865;28;20131;-68
2022/03/07 07:22:37;;;;;;;120.25;100.40;;;5.50;73.10;;;;;;5046887;28;20035;-64
2022/03/07 07:25:04;;;;;;;101.03;77.60;;;5.60;72.90;;;;;;5045505;28;20091;-64
2022/03/07 07:27:30;;;;;;;97.55;71.53;;;5.50;73.50;;;;;;5049553;28;20642;-62
2022/03/07 07:29:56;;;;;;;97.53;70.10;;;5.40;74.80;;;;;;5050571;28;20037;-62
2022/03/07 07:32:22;;;;;;;92.75;67.18;;;5.10;76.00;;;;;;5052520;28;20031;-62
2022/03/07 07:34:48;;;;;;;83.85;63.47;;;4.80;77.90;;;;;;5050860;28;20032;-63
2022/03/07 07:37:14;;;;;;;81.88;59.13;;;4.80;79.40;;;;;;5051776;28;20043;-63
2022/03/07 07:39:40;;;;;;;77.88;56.45;;;4.80;80.50;;;;;;5051410;28;20044;-63
2022/03/07 07:42:06;;;;;;;90.18;60.80;;;4.70;80.50;;;;;;5052556;28;20033;-63
2022/03/07 07:44:32;;;;;;;80.88;62.40;;;5.10;80.60;;;;;;5051414;28;20504;-63
2022/03/07 07:46:57;;;;;;;85.45;65.85;;;5.20;79.90;;;;;;5044360;28;20090;-63
2022/03/07 07:49:23;;;;;;;88.85;68.97;;;5.30;81.20;;;;;;5031684;28;20035;-62
2022/03/07 07:51:49;;;;;;;84.68;75.22;;;5.60;79.40;;;;;;5045498;28;20028;-63
2022/03/07 07:54:15;;;;;;;107.85;76.78;;;6.00;77.20;;;;;;5042530;28;20106;-63
2022/03/07 07:56:41;;;;;;;92.57;73.28;;;6.30;75.70;;;;;;5041290;28;20025;-62
2022/03/07 07:59:07;;;;;;;81.57;70.88;;;6.50;73.30;;;;;;5041550;28;20041;-62
2022/03/07 08:01:32;;;;;;;82.72;64.32;;;6.70;73.20;;;;;;5041521;28;20032;-62
2022/03/07 08:03:58;;;;;;;71.35;57.92;;;6.90;72.30;;;;;;5043593;28;20040;-63
2022/03/07 08:06:25;;;;;;;76.28;55.15;;;7.10;71.70;;;;;;5040580;28;20455;-63
2022/03/07 08:08:50;;;;;;;63.40;51.95;;;7.20;71.20;;;;;;5042221;28;20025;-63
2022/03/07 08:11:16;;;;;;;61.63;47.55;;;7.40;71.60;;;;;;5041552;28;20039;-63
2022/03/07 08:13:42;;;;;;;59.92;44.80;;;7.50;69.90;;;;;;5042233;28;20591;-63
2022/03/07 08:16:09;;;;;;;65.78;43.40;;;7.70;69.70;;;;;;5042133;28;20124;-63
2022/03/07 08:18:35;;;;;;;35.90;23.80;;;7.80;69.50;;;;;;5042061;28;20036;-63
2022/03/07 08:21:00;;;;;;;34.47;22.40;;;8.00;64.10;;;;;;5041527;28;20423;-63
2022/03/07 08:23:27;;;;;;;32.38;20.25;;;8.10;63.80;;;;;;5041957;28;20029;-63
2022/03/07 08:25:53;;;;;;;31.45;20.90;;;8.30;63.00;;;;;;5043543;28;20511;-63
2022/03/07 08:28:19;;;;;;;31.33;20.48;;;8.50;62.50;;;;;;5039737;28;20033;-63
2022/03/07 08:30:44;;;;;;;34.53;18.67;;;8.50;61.10;;;;;;5046569;28;20092;-63
2022/03/07 08:33:10;;;;;;;27.48;17.63;;;8.80;60.40;;;;;;5045025;28;20397;-63
2022/03/07 08:35:36;;;;;;;31.33;20.38;;;9.00;59.70;;;;;;5045562;28;20036;-63
2022/03/07 08:38:02;;;;;;;34.30;19.75;;;9.30;59.60;;;;;;5044527;28;20455;-63
2022/03/07 08:40:28;;;;;;;31.83;20.77;;;9.60;58.70;;;;;;5045311;28;20025;-63
2022/03/07 08:42:54;;;;;;;35.10;20.80;;;10.40;57.20;;;;;;5047057;28;20063;-63
2022/03/07 08:45:25;;;;;;;31.33;19.85;;;12.30;53.70;;;;;;5045387;28;20129;-63
2022/03/07 08:47:52;;;;;;;30.05;20.17;;;15.70;47.70;;;;;;5045072;28;20019;-63
2022/03/07 08:50:18;;;;;;;28.85;19.52;;;17.70;44.40;;;;;;5044010;28;20363;-64
2022/03/07 08:52:45;;;;;;;29.67;19.08;;;19.00;42.40;;;;;;5044417;28;20086;-63
2022/03/07 08:55:12;;;;;;;27.33;19.15;;;19.50;41.50;;;;;;5046227;28;20040;-63
2022/03/07 08:57:38;;;;;;;28.02;18.65;;;20.00;39.60;;;;;;5047230;28;20079;-64
2022/03/07 09:00:07;;;;;;;26.88;19.05;;;20.60;39.00;;;;;;5040865;28;20025;-64
2022/03/07 09:02:33;;;;;;;28.50;19.67;;;21.10;38.20;;;;;;5043636;28;20029;-64
2022/03/07 09:04:59;;;;;;;31.17;19.95;;;21.30;37.70;;;;;;5039086;28;20047;-64
2022/03/07 09:07:28;;;;;;;25.60;19.85;;;21.60;37.00;;;;;;5044633;28;20136;-64
2022/03/07 09:09:55;;;;;;;29.50;20.10;;;22.00;36.80;;;;;;5047537;28;20071;-64
2022/03/07 09:12:22;;;;;;;27.63;20.00;;;22.40;36.40;;;;;;5043666;28;20472;-64
2022/03/07 09:14:48;;;;;;;29.48;20.92;;;22.80;35.70;;;;;;5043479;28;20051;-64
2022/03/07 09:17:14;;;;;;;28.35;21.33;;;22.80;35.70;;;;;;5043940;28;20058;-64
2022/03/07 09:19:40;;;;;;;25.67;19.23;;;22.70;35.10;;;;;;5039767;28;20040;-64
2022/03/07 09:22:06;;;;;;;32.63;20.98;;;22.40;35.50;;;;;;5046075;28;20045;-64
2022/03/07 09:24:33;;;;;;;31.83;20.45;;;23.00;35.70;;;;;;5051907;28;20065;-64
2022/03/07 09:26:58;;;;;;;27.88;19.15;;;23.70;35.00;;;;;;5045604;28;20033;-64
2022/03/07 09:29:24;;;;;;;25.27;19.23;;;23.70;35.00;;;;;;5045964;28;20029;-65
2022/03/07 09:31:50;;;;;;;24.85;19.13;;;23.50;33.90;;;;;;5047499;28;20032;-64
2022/03/07 09:34:16;;;;;;;24.38;18.48;;;23.80;33.80;;;;;;5047507;28;20034;-63
2022/03/07 09:36:42;;;;;;;27.05;20.15;;;24.10;34.60;;;;;;5053463;28;20025;-66
2022/03/07 09:39:08;;;;;;;26.75;19.75;;;24.00;33.40;;;;;;5050994;28;20404;-64
2022/03/07 09:41:34;;;;;;;23.92;18.13;;;24.30;33.50;;;;;;5049581;28;20040;-62
2022/03/07 09:44:00;;;;;;;27.45;19.30;;;24.10;33.50;;;;;;5050599;28;20413;-63
2022/03/07 09:46:26;;;;;;;28.27;19.05;;;24.10;33.10;;;;;;5053299;28;20029;-63
2022/03/07 09:48:53;;;;;;;28.33;20.33;;;24.40;33.00;;;;;;5050025;28;20112;-63
2022/03/07 09:51:19;;;;;;;25.95;20.33;;;24.70;33.30;;;;;;5052541;28;20055;-64
2022/03/07 09:53:44;;;;;;;25.98;18.88;;;24.30;32.70;;;;;;5050559;28;20026;-63
2022/03/07 09:56:10;;;;;;;26.63;19.38;;;24.30;32.80;;;;;;5052479;28;20477;-64
2022/03/07 09:58:36;;;;;;;24.60;19.38;;;24.60;33.40;;;;;;5054077;28;20029;-63
2022/03/07 10:01:12;;;;;;;26.40;19.95;;;24.80;32.70;;;;;;5049337;28;20056;-63
2022/03/07 10:03:38;;;;;;;27.10;20.48;;;25.10;32.60;;;;;;5048065;28;20024;-63
2022/03/07 10:06:14;;;;;;;25.83;20.33;;;25.00;32.50;;;;;;5051319;28;20052;-64
2022/03/07 10:08:54;;;;;;;25.75;19.20;;;25.00;33.10;;;;;;5049784;28;20392;-64
2022/03/07 10:11:21;;;;;;;25.67;19.75;;;24.80;33.00;;;;;;5051038;28;20072;-64
2022/03/07 10:14:02;;;;;;;26.92;20.63;;;24.60;33.10;;;;;;5053670;28;20037;-63
2022/03/07 10:16:43;;;;;;;28.10;20.15;;;24.00;33.10;;;;;;5050825;28;20037;-63
2022/03/07 10:19:13;;;;;;;27.10;21.08;;;23.50;34.20;;;;;;5052318;28;20025;-64
2022/03/07 10:21:46;;;;;;;26.48;20.30;;;22.00;34.50;;;;;;5046558;28;20037;-63
2022/03/07 10:24:12;;;;;;;27.40;20.60;;;19.70;37.50;;;;;;5048423;28;20036;-63
2022/03/07 10:26:38;;;;;;;32.08;21.40;;;18.40;38.40;;;;;;5045123;28;20063;-64
2022/03/07 10:29:06;;;;;;;30.02;22.17;;;17.40;39.70;;;;;;5050293;28;20094;-65
2022/03/07 10:31:32;;;;;;;32.53;22.65;;;16.50;42.50;;;;;;5043112;28;20100;-64
2022/03/07 10:34:11;;;;;;;31.35;22.77;;;15.90;43.30;;;;;;5041178;28;20065;-63
2022/03/07 10:36:42;;;;;;;32.90;22.80;;;15.80;42.90;;;;;;5041285;28;20056;-63
2022/03/07 10:39:10;;;;;;;31.05;23.65;;;15.40;43.00;;;;;;5044373;28;20029;-64
2022/03/07 10:41:39;;;;;;;29.92;22.25;;;15.10;44.20;;;;;;5052253;28;20025;-65
2022/03/07 10:44:07;;;;;;;28.15;20.88;;;15.10;44.80;;;;;;5049738;28;20037;-65
2022/03/07 10:46:33;;;;;;;33.05;23.02;;;15.10;44.70;;;;;;5050040;28;20044;-64
2022/03/07 10:49:00;;;;;;;33.15;22.85;;;15.20;45.40;;;;;;5044837;28;20500;-67
2022/03/07 10:51:26;;;;;;;30.17;21.88;;;15.10;45.40;;;;;;5044708;28;20037;-66
2022/03/07 10:53:53;;;;;;;31.77;21.77;;;15.20;45.30;;;;;;5052805;28;20025;-66
2022/03/07 10:56:21;;;;;;;30.52;21.85;;;15.00;43.80;;;;;;5044344;28;20033;-65
2022/03/07 10:58:52;;;;;;;35.85;22.20;;;15.00;45.40;;;;;;5047904;28;20044;-68
2022/03/07 11:01:31;;;;;;;32.25;23.00;;;14.90;44.00;;;;;;5044386;28;20048;-66
2022/03/07 11:03:57;;;;;;;33.65;23.08;;;14.80;45.40;;;;;;5042286;28;20025;-65
2022/03/07 11:06:24;;;;;;;30.17;21.65;;;14.90;44.80;;;;;;5048169;28;20154;-66
2022/03/07 11:08:50;;;;;;;29.70;21.90;;;15.00;44.70;;;;;;5047377;28;20544;-66
2022/03/07 11:11:17;;;;;;;30.52;21.10;;;15.10;44.00;;;;;;5049357;28;20056;-65
2022/03/07 11:13:43;;;;;;;33.40;21.30;;;15.00;44.90;;;;;;5049144;28;20124;-65
2022/03/07 11:16:12;;;;;;;32.55;21.33;;;14.90;46.40;;;;;;5045352;28;20048;-65
2022/03/07 11:18:39;;;;;;;30.30;21.48;;;15.00;46.40;;;;;;5046759;28;20040;-66
2022/03/07 11:21:05;;;;;;;28.05;20.50;;;15.10;46.80;;;;;;5047098;28;20410;-65
2022/03/07 11:23:32;;;;;;;27.65;19.05;;;15.10;45.50;;;;;;5047914;28;20492;-65
2022/03/07 11:25:59;;;;;;;26.60;19.25;;;15.00;47.30;;;;;;5050511;28;20029;-65
2022/03/07 11:28:28;;;;;;;31.10;20.60;;;15.10;46.70;;;;;;5046196;28;20024;-65
2022/03/07 11:30:54;;;;;;;34.55;21.60;;;14.90;47.60;;;;;;5044056;28;20092;-64
2022/03/07 11:33:25;;;;;;;29.10;20.25;;;14.60;47.70;;;;;;5045769;28;20378;-64
2022/03/07 11:35:53;;;;;;;31.27;20.75;;;14.90;48.20;;;;;;5039842;28;20116;-64
2022/03/07 11:38:20;;;;;;;29.27;19.52;;;15.00;47.50;;;;;;5042307;28;20043;-64
2022/03/07 11:41:09;;;;;;;29.25;20.65;;;14.90;45.70;;;;;;5042056;28;20030;-64
2022/03/07 11:43:54;;;;;;;29.05;19.92;;;14.70;47.40;;;;;;5038646;28;20029;-64
2022/03/07 11:46:25;;;;;;;30.13;18.40;;;15.00;48.60;;;;;;5045059;28;20075;-64
2022/03/07 11:48:51;;;;;;;28.08;18.58;;;14.80;47.60;;;;;;5045161;28;20063;-64
2022/03/07 11:51:25;;;;;;;27.48;19.27;;;15.10;47.70;;;;;;5046018;28;20477;-64
2022/03/07 11:53:52;;;;;;;29.05;19.35;;;15.00;46.70;;;;;;5044159;28;20029;-63
2022/03/07 11:56:20;;;;;;;28.50;18.85;;;15.50;47.70;;;;;;5044227;28;20500;-64
2022/03/07 11:58:53;;;;;;;31.67;20.15;;;15.50;47.70;;;;;;5044675;28;20451;-64
2022/03/07 12:01:21;;;;;;;28.98;19.77;;;15.30;46.90;;;;;;5045219;28;20090;-64
2022/03/07 12:03:50;;;;;;;28.60;19.95;;;15.50;46.40;;;;;;5047415;28;20029;-64
2022/03/07 12:06:18;;;;;;;30.15;19.55;;;15.50;46.50;;;;;;5044959;28;20507;-64
2022/03/07 12:08:49;;;;;;;27.80;18.70;;;15.40;46.50;;;;;;5044958;28;20485;-64
2022/03/07 12:11:29;;;;;;;28.20;19.55;;;15.40;46.30;;;;;;5043931;28;20524;-64
2022/03/07 12:14:02;;;;;;;29.92;20.08;;;15.60;47.10;;;;;;5043911;28;20045;-64
2022/03/07 12:16:37;;;;;;;27.83;20.27;;;15.70;47.00;;;;;;5039361;28;20033;-64
2022/03/07 12:19:12;;;;;;;30.80;20.73;;;15.60;45.20;;;;;;5045292;28;20032;-64
2022/03/07 12:21:43;;;;;;;28.15;19.75;;;15.50;45.70;;;;;;5046399;28;20055;-64
2022/03/07 12:24:11;;;;;;;28.70;19.55;;;15.30;44.80;;;;;;5043520;28;20311;-64
2022/03/07 12:26:56;;;;;;;31.85;19.20;;;15.60;46.70;;;;;;5045412;28;20065;-64
2022/03/07 12:29:25;;;;;;;30.70;19.42;;;15.80;44.10;;;;;;5039165;28;20025;-64
2022/03/07 12:31:59;;;;;;;28.05;18.40;;;16.10;43.30;;;;;;5043998;28;20028;-65